createdAt,value
2023-05-10T00:02:16.716Z,100709.80
2023-05-10T00:04:44.753Z,100709.00
2023-05-10T00:07:12.588Z,100708.00
2023-05-10T00:09:41.186Z,100707.60
2023-05-10T00:12:09.131Z,100702.20
2023-05-10T00:14:37.116Z,100699.60
2023-05-10T00:17:05.119Z,100696.60
2023-05-10T00:19:33.138Z,100692.00
2023-05-10T00:22:01.126Z,100697.80
2023-05-10T00:24:28.990Z,100694.80
2023-05-10T00:26:57.168Z,100697.00
2023-05-10T00:29:25.435Z,100694.80
2023-05-10T00:31:53.636Z,100698.00
2023-05-10T00:34:21.959Z,100695.80
2023-05-10T00:36:50.038Z,100692.60
2023-05-10T00:39:17.865Z,100691.00
2023-05-10T00:41:46.412Z,100686.40
2023-05-10T00:44:14.325Z,100683.60
2023-05-10T00:46:42.846Z,100682.20
2023-05-10T00:49:10.779Z,100682.80
2023-05-10T00:51:38.992Z,100686.20
2023-05-10T00:54:07.785Z,100681.60
2023-05-10T00:56:35.893Z,100687.60
2023-05-10T00:59:04.555Z,100690.20
2023-05-10T01:01:32.691Z,100686.00
2023-05-10T01:04:00.576Z,100690.80
2023-05-10T01:06:28.780Z,100685.60
2023-05-10T01:08:57.092Z,100679.20
2023-05-10T01:11:25.098Z,100680.00
2023-05-10T01:13:56.798Z,100684.80
2023-05-10T01:16:25.259Z,100681.00
2023-05-10T01:18:53.155Z,100679.60
2023-05-10T01:21:42.851Z,100678.00
2023-05-10T01:24:33.452Z,100674.60
2023-05-10T01:27:20.023Z,100671.80
2023-05-10T01:30:29.839Z,100666.00
2023-05-10T01:33:20.754Z,100668.00
2023-05-10T01:36:10.480Z,100666.80
2023-05-10T01:38:45.156Z,100663.20
2023-05-10T01:41:37.380Z,100659.60
2023-05-10T01:44:09.450Z,100661.00
2023-05-10T01:46:38.809Z,100654.00
2023-05-10T01:49:17.422Z,100652.60
2023-05-10T01:51:52.384Z,100650.20
2023-05-10T01:54:20.953Z,100654.00
2023-05-10T01:56:56.407Z,100654.20
2023-05-10T01:59:24.499Z,100650.20
2023-05-10T02:01:52.369Z,100645.20
2023-05-10T02:04:20.320Z,100642.20
2023-05-10T02:06:49.026Z,100641.60
2023-05-10T02:09:17.077Z,100638.40
2023-05-10T02:11:45.004Z,100643.20
2023-05-10T02:14:13.819Z,100643.40
2023-05-10T02:16:41.919Z,100639.60
2023-05-10T02:19:10.388Z,100637.20
2023-05-10T02:21:39.442Z,100637.20
2023-05-10T02:24:08.163Z,100638.60
2023-05-10T02:26:36.339Z,100631.00
2023-05-10T02:29:04.553Z,100629.20
2023-05-10T02:31:33.518Z,100633.60
2023-05-10T02:34:01.574Z,100629.40
2023-05-10T02:36:29.759Z,100630.20
2023-05-10T02:38:57.682Z,100632.80
2023-05-10T02:41:25.578Z,100630.60
2023-05-10T02:43:53.572Z,100631.00
2023-05-10T02:49:09.735Z,100621.00
2023-05-10T03:01:07.814Z,100631.40
2023-05-10T03:03:36.152Z,100624.60
2023-05-10T03:06:05.348Z,100629.20
2023-05-10T03:08:33.267Z,100631.40
2023-05-10T03:11:11.164Z,100633.20
2023-05-10T03:13:47.405Z,100631.60
2023-05-10T03:21:10.015Z,100632.00
2023-05-10T03:24:01.484Z,100631.20
2023-05-10T03:31:13.619Z,100629.80
2023-05-10T03:33:52.058Z,100628.60
2023-05-10T03:45:29.443Z,100645.80
2023-05-10T03:56:56.525Z,100631.40
2023-05-10T04:04:34.247Z,100645.40
2023-05-10T04:16:45.958Z,100638.60
2023-05-10T04:19:14.195Z,100642.20
2023-05-10T04:21:42.110Z,100641.40
2023-05-10T04:24:10.212Z,100645.60
2023-05-10T04:26:38.168Z,100650.20
2023-05-10T04:29:06.246Z,100651.00
2023-05-10T04:31:34.437Z,100654.40
2023-05-10T04:34:02.497Z,100647.60
2023-05-10T04:36:30.358Z,100646.60
2023-05-10T04:38:58.431Z,100643.20
2023-05-10T04:41:26.465Z,100646.00
2023-05-10T04:43:54.579Z,100647.60
2023-05-10T04:46:22.910Z,100651.40
2023-05-10T04:48:50.981Z,100653.80
2023-05-10T04:51:21.160Z,100649.80
2023-05-10T04:54:01.377Z,100642.80
2023-05-10T04:56:33.061Z,100638.80
2023-05-10T04:59:01.005Z,100636.60
2023-05-10T05:01:29.097Z,100639.60
2023-05-10T05:03:57.229Z,100638.40
2023-05-10T05:06:26.105Z,100646.00
2023-05-10T05:08:54.035Z,100642.60
2023-05-10T05:11:22.106Z,100644.20
2023-05-10T05:13:49.923Z,100638.00
2023-05-10T05:16:17.891Z,100638.20
2023-05-10T05:18:45.867Z,100636.00
2023-05-10T05:21:17.407Z,100633.00
2023-05-10T05:23:45.438Z,100638.60
2023-05-10T05:26:13.346Z,100637.00
2023-05-10T05:28:41.418Z,100643.60
2023-05-10T05:31:09.369Z,100639.40
2023-05-10T05:33:37.462Z,100632.80
2023-05-10T05:36:06.494Z,100638.60
2023-05-10T05:38:34.529Z,100640.00
2023-05-10T05:41:02.674Z,100642.60
2023-05-10T05:43:30.758Z,100644.40
2023-05-10T05:46:01.767Z,100636.80
2023-05-10T05:48:31.023Z,100637.40
2023-05-10T05:50:59.163Z,100639.20
2023-05-10T05:53:27.237Z,100637.80
2023-05-10T05:55:56.471Z,100640.20
2023-05-10T05:58:24.797Z,100640.40
2023-05-10T06:00:53.080Z,100643.80
2023-05-10T06:03:21.310Z,100646.80
2023-05-10T06:05:49.481Z,100644.20
2023-05-10T06:08:17.527Z,100648.20
2023-05-10T06:10:46.452Z,100648.60
2023-05-10T06:13:14.422Z,100647.60
2023-05-10T06:15:42.301Z,100655.40
2023-05-10T06:18:10.310Z,100655.20
2023-05-10T06:20:38.947Z,100647.80
2023-05-10T06:23:06.839Z,100651.00
2023-05-10T06:25:34.928Z,100652.00
2023-05-10T06:28:03.121Z,100662.80
2023-05-10T06:30:31.144Z,100651.80
2023-05-10T06:32:59.244Z,100660.40
2023-05-10T06:35:27.130Z,100657.60
2023-05-10T06:37:55.864Z,100660.60
2023-05-10T06:40:24.015Z,100668.00
2023-05-10T06:42:52.341Z,100664.40
2023-05-10T06:45:20.829Z,100661.40
2023-05-10T06:47:49.123Z,100663.60
2023-05-10T06:50:17.083Z,100657.40
2023-05-10T06:52:45.149Z,100659.60
2023-05-10T06:55:13.529Z,100668.60
2023-05-10T06:57:41.482Z,100670.60
2023-05-10T07:00:10.878Z,100667.20
2023-05-10T07:02:38.930Z,100664.60
2023-05-10T07:05:07.297Z,100662.00
2023-05-10T07:07:35.188Z,100664.00
2023-05-10T07:10:03.837Z,100670.40
2023-05-10T07:12:31.905Z,100670.00
2023-05-10T07:14:59.940Z,100669.80
2023-05-10T07:17:27.832Z,100664.00
2023-05-10T07:19:55.917Z,100669.00
2023-05-10T07:22:23.794Z,100666.80
2023-05-10T07:24:51.650Z,100675.80
2023-05-10T07:27:19.981Z,100676.80
2023-05-10T07:29:47.988Z,100672.20
2023-05-10T07:32:15.827Z,100667.60
2023-05-10T07:34:43.717Z,100673.60
2023-05-10T07:37:11.694Z,100675.40
2023-05-10T07:39:39.702Z,100677.00
2023-05-10T07:42:07.761Z,100672.60
2023-05-10T07:44:35.655Z,100679.40
2023-05-10T07:47:03.575Z,100674.00
2023-05-10T07:49:31.528Z,100670.20
2023-05-10T07:51:59.362Z,100680.40
2023-05-10T07:54:27.166Z,100674.60
2023-05-10T07:56:55.377Z,100678.60
2023-05-10T07:59:23.421Z,100672.80
2023-05-10T08:01:51.540Z,100688.00
2023-05-10T08:04:19.743Z,100688.60
2023-05-10T08:06:47.610Z,100679.60
2023-05-10T08:09:15.468Z,100688.00
2023-05-10T08:11:43.333Z,100682.60
2023-05-10T08:14:11.132Z,100680.00
2023-05-10T08:16:39.239Z,100683.80
2023-05-10T08:19:07.135Z,100690.00
2023-05-10T08:21:35.563Z,100695.60
2023-05-10T08:24:03.606Z,100686.20
2023-05-10T08:26:31.760Z,100687.60
2023-05-10T08:29:00.168Z,100682.60
2023-05-10T08:31:28.068Z,100685.00
2023-05-10T08:33:56.055Z,100686.40
2023-05-10T08:36:25.490Z,100687.20
2023-05-10T08:38:53.455Z,100683.00
2023-05-10T08:41:22.161Z,100684.60
2023-05-10T08:43:53.766Z,100694.00
2023-05-10T08:46:22.736Z,100702.40
2023-05-10T08:48:51.498Z,100687.20
2023-05-10T08:51:22.105Z,100688.00
2023-05-10T08:53:50.051Z,100698.00
2023-05-10T08:56:18.934Z,100683.00
2023-05-10T08:58:47.035Z,100697.60
2023-05-10T09:01:14.948Z,100688.40
2023-05-10T09:03:42.874Z,100675.80
2023-05-10T09:06:10.721Z,100685.40
2023-05-10T09:08:38.758Z,100686.60
2023-05-10T09:11:06.585Z,100683.60
2023-05-10T09:13:34.700Z,100685.40
2023-05-10T09:16:17.503Z,100688.40
2023-05-10T09:18:50.453Z,100690.00
2023-05-10T09:21:20.751Z,100685.60
2023-05-10T09:23:51.203Z,100689.20
2023-05-10T09:26:23.360Z,100686.80
2023-05-10T09:28:56.465Z,100685.00
2023-05-10T09:31:26.220Z,100679.40
2023-05-10T09:33:54.352Z,100684.20
2023-05-10T09:36:22.154Z,100682.40
2023-05-10T09:38:52.712Z,100688.80
2023-05-10T09:41:24.166Z,100682.20
2023-05-10T09:43:56.545Z,100679.80
2023-05-10T09:46:24.668Z,100686.20
2023-05-10T09:48:52.648Z,100681.00
2023-05-10T09:51:24.156Z,100673.20
2023-05-10T09:54:13.135Z,100672.00
2023-05-10T09:56:41.730Z,100662.00
2023-05-10T09:59:13.171Z,100660.20
2023-05-10T10:01:41.762Z,100659.00
2023-05-10T10:04:10.497Z,100659.40
2023-05-10T10:06:39.471Z,100658.60
2023-05-10T10:09:07.675Z,100656.00
2023-05-10T10:11:37.101Z,100652.80
2023-05-10T10:14:05.665Z,100653.00
2023-05-10T10:16:33.751Z,100649.00
2023-05-10T10:19:01.808Z,100655.40
2023-05-10T10:21:29.899Z,100647.40
2023-05-10T10:23:57.876Z,100652.80
2023-05-10T10:26:26.125Z,100648.80
2023-05-10T10:29:08.820Z,100653.00
2023-05-10T10:31:52.039Z,100637.40
2023-05-10T10:34:30.136Z,100646.60
2023-05-10T10:36:58.559Z,100647.00
2023-05-10T10:39:26.646Z,100637.80
2023-05-10T10:41:56.087Z,100641.40
2023-05-10T10:44:25.282Z,100639.40
2023-05-10T10:47:25.234Z,100634.40
2023-05-10T10:50:19.500Z,100634.60
2023-05-10T10:52:50.640Z,100627.80
2023-05-10T10:55:20.043Z,100620.80
2023-05-10T10:58:01.602Z,100633.60
2023-05-10T11:00:29.771Z,100628.80
2023-05-10T11:03:18.470Z,100630.00
2023-05-10T11:05:50.417Z,100628.40
2023-05-10T11:08:19.535Z,100619.20
2023-05-10T11:10:53.059Z,100621.80
2023-05-10T11:13:31.380Z,100614.00
2023-05-10T11:16:00.306Z,100614.00
2023-05-10T11:18:29.705Z,100619.40
2023-05-10T11:21:04.242Z,100607.80
2023-05-10T11:23:32.357Z,100607.80
2023-05-10T11:26:02.065Z,100601.40
2023-05-10T11:28:30.254Z,100602.20
2023-05-10T11:30:58.327Z,100593.00
2023-05-10T11:33:26.458Z,100584.40
2023-05-10T11:35:54.277Z,100597.20
2023-05-10T11:38:22.236Z,100586.00
2023-05-10T11:40:52.143Z,100591.60
2023-05-10T11:43:20.193Z,100582.40
2023-05-10T11:45:48.020Z,100590.40
2023-05-10T11:48:17.705Z,100588.20
2023-05-10T11:50:45.870Z,100594.20
2023-05-10T11:53:14.110Z,100586.00
2023-05-10T11:55:42.143Z,100586.80
2023-05-10T11:58:10.031Z,100586.60
2023-05-10T12:00:37.989Z,100577.80
2023-05-10T12:03:06.012Z,100570.60
2023-05-10T12:05:34.551Z,100564.60
2023-05-10T12:08:17.979Z,100581.20
2023-05-10T12:10:45.919Z,100561.80
2023-05-10T12:13:15.453Z,100566.40
2023-05-10T12:15:43.947Z,100570.00
2023-05-10T12:18:13.002Z,100566.00
2023-05-10T12:20:41.526Z,100559.00
2023-05-10T12:23:11.079Z,100559.40
2023-05-10T12:25:39.923Z,100553.20
2023-05-10T12:28:09.988Z,100566.20
2023-05-10T12:30:38.115Z,100547.20
2023-05-10T12:33:11.212Z,100557.00
2023-05-10T12:35:49.826Z,100550.20
2023-05-10T12:38:49.066Z,100541.00
2023-05-10T12:41:18.743Z,100537.60
2023-05-10T12:43:47.650Z,100550.20
2023-05-10T12:46:17.604Z,100544.00
2023-05-10T12:48:46.518Z,100535.40
2023-05-10T12:51:16.850Z,100529.20
2023-05-10T12:53:48.709Z,100528.00
2023-05-10T12:56:17.677Z,100524.20
2023-05-10T12:58:49.204Z,100527.80
2023-05-10T13:01:17.438Z,100519.80
2023-05-10T13:03:45.584Z,100515.00
2023-05-10T13:06:14.548Z,100528.40
2023-05-10T13:08:42.497Z,100524.00
2023-05-10T13:11:10.504Z,100518.00
2023-05-10T13:13:38.509Z,100512.60
2023-05-10T13:16:06.919Z,100504.80
2023-05-10T13:18:34.922Z,100508.60
2023-05-10T13:21:05.002Z,100499.40
2023-05-10T13:23:32.998Z,100500.60
2023-05-10T13:26:00.854Z,100500.80
2023-05-10T13:28:28.888Z,100504.40
2023-05-10T13:30:56.870Z,100496.00
2023-05-10T13:33:24.942Z,100498.40
2023-05-10T13:35:54.414Z,100489.20
2023-05-10T13:38:23.544Z,100490.00
2023-05-10T13:40:53.970Z,100478.20
2023-05-10T13:43:22.086Z,100488.20
2023-05-10T13:45:50.175Z,100487.20
2023-05-10T13:48:18.337Z,100483.60
2023-05-10T13:50:46.201Z,100483.60
2023-05-10T13:53:15.504Z,100483.00
2023-05-10T13:55:43.367Z,100485.80
2023-05-10T13:58:11.828Z,100479.80
2023-05-10T14:00:39.717Z,100470.60
2023-05-10T14:03:10.159Z,100466.40
2023-05-10T14:05:38.312Z,100472.20
2023-05-10T14:08:06.294Z,100465.60
2023-05-10T14:10:34.266Z,100466.40
2023-05-10T14:13:02.351Z,100473.20
2023-05-10T14:15:30.428Z,100464.80
2023-05-10T14:17:58.346Z,100465.20
2023-05-10T14:20:26.329Z,100465.40
2023-05-10T14:22:54.343Z,100470.40
2023-05-10T14:25:22.196Z,100459.80
2023-05-10T14:27:50.068Z,100456.80
2023-05-10T14:30:18.094Z,100452.00
2023-05-10T14:32:46.228Z,100450.40
2023-05-10T14:35:15.539Z,100461.20
2023-05-10T14:37:45.664Z,100455.40
2023-05-10T14:40:13.966Z,100459.00
2023-05-10T14:42:43.438Z,100459.60
2023-05-10T14:45:12.325Z,100453.40
2023-05-10T14:47:40.437Z,100456.00
2023-05-10T14:50:08.941Z,100451.40
2023-05-10T14:52:37.463Z,100456.80
2023-05-10T14:55:05.674Z,100460.60
2023-05-10T14:57:33.521Z,100466.80
2023-05-10T15:00:01.525Z,100460.40
2023-05-10T15:02:30.271Z,100464.60
2023-05-10T15:04:59.083Z,100455.80
2023-05-10T15:07:27.567Z,100462.60
2023-05-10T15:09:55.471Z,100459.00
2023-05-10T15:12:23.373Z,100452.80
2023-05-10T15:14:51.328Z,100451.40
2023-05-10T15:17:19.171Z,100446.40
2023-05-10T15:19:47.096Z,100449.40
2023-05-10T15:22:15.007Z,100441.20
2023-05-10T15:24:42.997Z,100442.00
2023-05-10T15:27:11.063Z,100443.00
2023-05-10T15:29:38.977Z,100446.20
2023-05-10T15:32:07.271Z,100442.00
2023-05-10T15:34:36.474Z,100445.00
2023-05-10T15:37:05.014Z,100438.00
2023-05-10T15:39:32.994Z,100439.80
2023-05-10T15:42:02.477Z,100442.00
2023-05-10T15:44:30.498Z,100436.60
2023-05-10T15:46:58.506Z,100440.40
2023-05-10T15:49:26.731Z,100443.00
2023-05-10T15:51:54.686Z,100435.40
2023-05-10T15:54:22.537Z,100431.60
2023-05-10T15:56:50.300Z,100432.60
2023-05-10T15:59:18.219Z,100434.80
2023-05-10T16:01:46.121Z,100429.60
2023-05-10T16:04:14.176Z,100431.60
2023-05-10T16:06:41.988Z,100430.80
2023-05-10T16:09:10.710Z,100427.00
2023-05-10T16:11:38.806Z,100427.20
2023-05-10T16:14:07.465Z,100423.00
2023-05-10T16:16:35.600Z,100424.80
2023-05-10T16:19:04.463Z,100427.80
2023-05-10T16:21:32.865Z,100431.40
2023-05-10T16:24:00.769Z,100430.60
2023-05-10T16:26:28.698Z,100437.40
2023-05-10T16:28:56.666Z,100432.80
2023-05-10T16:31:24.755Z,100431.20
2023-05-10T16:33:53.120Z,100423.60
2023-05-10T16:36:21.145Z,100428.00
2023-05-10T16:38:49.122Z,100428.60
2023-05-10T16:41:17.098Z,100424.80
2023-05-10T16:43:44.975Z,100426.20
2023-05-10T16:46:13.040Z,100414.40
2023-05-10T16:48:41.210Z,100422.00
2023-05-10T16:51:09.427Z,100422.00
2023-05-10T16:53:37.909Z,100423.40
2023-05-10T16:56:06.064Z,100426.80
2023-05-10T16:58:34.433Z,100428.00
2023-05-10T17:01:03.020Z,100433.40
2023-05-10T17:03:31.387Z,100435.00
2023-05-10T17:05:59.727Z,100436.60
2023-05-10T17:08:28.053Z,100442.60
2023-05-10T17:10:56.442Z,100439.80
2023-05-10T17:13:24.870Z,100440.00
2023-05-10T17:15:52.980Z,100440.80
2023-05-10T17:18:21.090Z,100442.80
2023-05-10T17:20:49.044Z,100443.60
2023-05-10T17:23:16.944Z,100452.00
2023-05-10T17:25:44.999Z,100446.20
2023-05-10T17:28:12.821Z,100447.80
2023-05-10T17:30:40.668Z,100448.40
2023-05-10T17:33:08.467Z,100451.80
2023-05-10T17:35:36.302Z,100454.00
2023-05-10T17:38:04.347Z,100454.00
2023-05-10T17:40:32.340Z,100455.60
2023-05-10T17:43:00.196Z,100461.80
2023-05-10T17:45:28.124Z,100465.80
2023-05-10T17:47:56.078Z,100462.40
2023-05-10T17:50:23.922Z,100469.40
2023-05-10T17:52:51.853Z,100467.60
2023-05-10T17:55:19.982Z,100467.80
2023-05-10T17:57:49.875Z,100474.40
2023-05-10T18:00:19.289Z,100475.80
2023-05-10T18:02:47.187Z,100482.00
2023-05-10T18:05:15.353Z,100479.60
2023-05-10T18:07:43.968Z,100483.80
2023-05-10T18:10:11.865Z,100484.60
2023-05-10T18:12:39.717Z,100485.20
2023-05-10T18:15:08.405Z,100489.00
2023-05-10T18:17:36.398Z,100491.00
2023-05-10T18:20:04.730Z,100488.60
2023-05-10T18:22:32.730Z,100488.00
2023-05-10T18:25:00.837Z,100494.80
2023-05-10T18:27:29.103Z,100493.00
2023-05-10T18:29:57.097Z,100497.20
2023-05-10T18:32:25.208Z,100501.80
2023-05-10T18:34:55.051Z,100508.20
2023-05-10T18:37:23.792Z,100515.40
2023-05-10T18:39:52.855Z,100514.00
2023-05-10T18:42:20.785Z,100518.80
2023-05-10T18:44:48.950Z,100520.20
2023-05-10T18:47:16.917Z,100520.40
2023-05-10T18:49:47.356Z,100522.20
2023-05-10T18:52:16.151Z,100522.80
2023-05-10T18:54:44.076Z,100521.40
2023-05-10T18:57:12.565Z,100521.20
2023-05-10T18:59:40.512Z,100524.60
2023-05-10T19:02:08.687Z,100521.00
2023-05-10T19:04:36.668Z,100517.60
2023-05-10T19:07:04.589Z,100522.80
2023-05-10T19:09:32.559Z,100523.60
2023-05-10T19:12:00.583Z,100520.80
2023-05-10T19:14:28.709Z,100524.60
2023-05-10T19:16:56.708Z,100524.80
2023-05-10T19:19:24.684Z,100523.20
2023-05-10T19:21:53.052Z,100524.00
2023-05-10T19:24:23.483Z,100527.60
2023-05-10T19:26:52.139Z,100526.60
2023-05-10T19:29:20.110Z,100524.80
2023-05-10T19:31:48.996Z,100521.40
2023-05-10T19:34:17.097Z,100525.00
2023-05-10T19:36:45.303Z,100528.60
2023-05-10T19:39:13.376Z,100528.00
2023-05-10T19:41:41.249Z,100531.60
2023-05-10T19:44:09.373Z,100527.00
2023-05-10T19:46:37.548Z,100524.20
2023-05-10T19:49:05.769Z,100523.80
2023-05-10T19:51:34.145Z,100528.60
2023-05-10T19:54:02.215Z,100528.20
2023-05-10T19:56:30.439Z,100521.60
2023-05-10T19:58:58.566Z,100524.20
2023-05-10T20:01:26.976Z,100527.20
2023-05-10T20:03:55.437Z,100527.20
2023-05-10T20:06:23.487Z,100527.40
2023-05-10T20:08:53.884Z,100522.40
2023-05-10T20:11:24.397Z,100519.00
2023-05-10T20:13:55.886Z,100519.40
2023-05-10T20:16:27.093Z,100516.60
2023-05-10T20:18:58.247Z,100517.80
2023-05-10T20:21:28.461Z,100512.00
2023-05-10T20:23:58.322Z,100513.20
2023-05-10T20:26:26.790Z,100516.00
2023-05-10T20:28:56.226Z,100512.20
2023-05-10T20:31:27.661Z,100511.00
2023-05-10T20:34:01.480Z,100511.00
2023-05-10T20:36:31.663Z,100508.20
2023-05-10T20:38:59.986Z,100506.00
2023-05-10T20:41:29.412Z,100508.80
2023-05-10T20:43:58.597Z,100511.40
2023-05-10T21:32:30.669Z,100511.00
2023-05-10T21:34:59.091Z,100508.20
2023-05-10T21:37:26.923Z,100506.20
2023-05-10T21:39:55.024Z,100507.40
2023-05-10T21:42:23.067Z,100503.80
2023-05-10T21:44:50.931Z,100507.40
2023-05-10T21:47:18.930Z,100506.00
2023-05-10T21:49:46.725Z,100511.00
2023-05-10T21:52:14.940Z,100511.80
2023-05-10T21:54:42.870Z,100511.00
2023-05-10T21:57:10.837Z,100513.40
2023-05-10T21:59:39.806Z,100514.80
2023-05-10T22:02:07.957Z,100511.60
2023-05-10T22:04:35.897Z,100517.40
2023-05-10T22:07:03.922Z,100516.00
2023-05-10T22:09:31.797Z,100521.40
2023-05-10T22:11:59.638Z,100519.40
2023-05-10T22:14:27.504Z,100509.40
2023-05-10T22:16:55.814Z,100516.00
2023-05-10T22:19:23.960Z,100512.80
2023-05-10T22:21:52.852Z,100512.80
2023-05-10T22:24:21.518Z,100509.60
2023-05-10T22:26:50.727Z,100515.80
2023-05-10T22:29:20.436Z,100511.60
2023-05-10T22:31:49.327Z,100507.60
2023-05-10T22:34:18.953Z,100507.80
2023-05-10T22:36:47.065Z,100510.60
2023-05-10T22:39:15.795Z,100510.20
2023-05-10T22:41:43.766Z,100503.80
2023-05-10T22:44:12.138Z,100497.80
2023-05-10T22:46:40.248Z,100502.20
2023-05-10T22:49:08.199Z,100501.00
2023-05-10T22:51:37.465Z,100498.40
2023-05-10T22:54:07.501Z,100498.00
2023-05-10T22:56:35.591Z,100497.40
2023-05-10T22:59:03.703Z,100490.60
2023-05-10T23:01:33.446Z,100498.00
2023-05-10T23:04:04.070Z,100501.40
2023-05-10T23:06:33.306Z,100500.20
2023-05-10T23:09:01.142Z,100496.20
2023-05-10T23:11:28.973Z,100497.80
2023-05-10T23:13:56.828Z,100495.40
2023-05-10T23:16:25.009Z,100487.00
2023-05-10T23:18:53.017Z,100486.60
2023-05-10T23:21:23.530Z,100488.40
2023-05-10T23:23:51.585Z,100488.40
2023-05-10T23:26:19.596Z,100488.40
2023-05-10T23:28:48.070Z,100488.00
2023-05-10T23:31:16.540Z,100487.60
2023-05-10T23:33:44.628Z,100487.00
2023-05-10T23:36:12.594Z,100490.00
2023-05-10T23:38:40.755Z,100489.40
2023-05-10T23:41:08.568Z,100489.40
2023-05-10T23:43:36.673Z,100493.20
2023-05-10T23:46:06.576Z,100495.00
2023-05-10T23:48:34.789Z,100494.20
2023-05-10T23:51:03.661Z,100492.00
2023-05-10T23:53:32.382Z,100491.80
2023-05-10T23:56:00.560Z,100489.80
2023-05-10T23:58:29.643Z,100488.60
